sensor_id;sensor_type;location;lat;lon;timestamp;P1;durP1;ratioP1;P2;durP2;ratioP2
56599;SDS011;51832;48.152;11.530;2023-03-02T00:00:28;25.70;;;13.70;;
56599;SDS011;51832;48.152;11.530;2023-03-02T00:05:29;27.00;;;13.52;;
56599;SDS011;51832;48.152;11.530;2023-03-02T00:10:29;25.98;;;12.88;;
56599;SDS011;51832;48.152;11.530;2023-03-02T00:15:30;28.65;;;13.30;;
56599;SDS011;51832;48.152;11.530;2023-03-02T00:20:31;29.70;;;13.73;;
56599;SDS011;51832;48.152;11.530;2023-03-02T00:25:34;29.00;;;13.77;;
56599;SDS011;51832;48.152;11.530;2023-03-02T00:30:36;23.85;;;12.77;;
56599;SDS011;51832;48.152;11.530;2023-03-02T00:35:37;26.10;;;13.13;;
56599;SDS011;51832;48.152;11.530;2023-03-02T00:40:43;29.23;;;13.47;;
56599;SDS011;51832;48.152;11.530;2023-03-02T00:45:45;28.08;;;13.73;;
56599;SDS011;51832;48.152;11.530;2023-03-02T00:50:45;30.23;;;13.98;;
56599;SDS011;51832;48.152;11.530;2023-03-02T00:55:55;29.25;;;13.98;;
56599;SDS011;51832;48.152;11.530;2023-03-02T01:00:56;26.80;;;13.30;;
56599;SDS011;51832;48.152;11.530;2023-03-02T01:05:57;24.23;;;12.98;;
56599;SDS011;51832;48.152;11.530;2023-03-02T01:10:57;30.48;;;14.60;;
56599;SDS011;51832;48.152;11.530;2023-03-02T01:16:03;29.53;;;14.50;;
56599;SDS011;51832;48.152;11.530;2023-03-02T01:21:05;23.60;;;13.15;;
56599;SDS011;51832;48.152;11.530;2023-03-02T01:26:10;30.85;;;14.27;;
56599;SDS011;51832;48.152;11.530;2023-03-02T01:31:11;30.50;;;14.75;;
56599;SDS011;51832;48.152;11.530;2023-03-02T01:36:11;27.58;;;14.02;;
56599;SDS011;51832;48.152;11.530;2023-03-02T01:41:12;29.15;;;13.77;;
56599;SDS011;51832;48.152;11.530;2023-03-02T01:46:17;30.80;;;14.55;;
56599;SDS011;51832;48.152;11.530;2023-03-02T01:51:20;27.27;;;14.02;;
56599;SDS011;51832;48.152;11.530;2023-03-02T01:56:24;33.95;;;15.60;;
56599;SDS011;51832;48.152;11.530;2023-03-02T02:01:29;27.38;;;15.10;;
56599;SDS011;51832;48.152;11.530;2023-03-02T02:11:54;30.58;;;14.45;;
56599;SDS011;51832;48.152;11.530;2023-03-02T02:16:54;32.17;;;15.25;;
56599;SDS011;51832;48.152;11.530;2023-03-02T02:21:55;26.65;;;14.40;;
56599;SDS011;51832;48.152;11.530;2023-03-02T02:26:56;33.03;;;15.95;;
56599;SDS011;51832;48.152;11.530;2023-03-02T02:31:59;33.85;;;15.25;;
56599;SDS011;51832;48.152;11.530;2023-03-02T02:37:06;30.35;;;14.93;;
56599;SDS011;51832;48.152;11.530;2023-03-02T02:42:32;30.75;;;15.30;;
56599;SDS011;51832;48.152;11.530;2023-03-02T02:47:36;32.63;;;15.17;;
56599;SDS011;51832;48.152;11.530;2023-03-02T02:52:37;28.40;;;14.45;;
56599;SDS011;51832;48.152;11.530;2023-03-02T02:57:40;29.25;;;14.68;;
56599;SDS011;51832;48.152;11.530;2023-03-02T03:02:42;27.65;;;14.07;;
56599;SDS011;51832;48.152;11.530;2023-03-02T03:07:45;33.95;;;15.65;;
56599;SDS011;51832;48.152;11.530;2023-03-02T03:12:45;29.17;;;15.38;;
56599;SDS011;51832;48.152;11.530;2023-03-02T03:17:47;27.65;;;15.00;;
56599;SDS011;51832;48.152;11.530;2023-03-02T03:22:53;29.80;;;14.00;;
56599;SDS011;51832;48.152;11.530;2023-03-02T03:27:54;29.13;;;14.95;;
56599;SDS011;51832;48.152;11.530;2023-03-02T03:32:54;33.63;;;15.98;;
56599;SDS011;51832;48.152;11.530;2023-03-02T03:37:55;27.95;;;14.43;;
56599;SDS011;51832;48.152;11.530;2023-03-02T03:42:55;32.25;;;16.20;;
56599;SDS011;51832;48.152;11.530;2023-03-02T03:47:56;32.67;;;16.17;;
56599;SDS011;51832;48.152;11.530;2023-03-02T03:52:57;33.85;;;15.80;;
56599;SDS011;51832;48.152;11.530;2023-03-02T03:57:57;33.50;;;15.80;;
56599;SDS011;51832;48.152;11.530;2023-03-02T04:02:57;27.08;;;11.98;;
56599;SDS011;51832;48.152;11.530;2023-03-02T04:07:58;37.75;;;17.65;;
56599;SDS011;51832;48.152;11.530;2023-03-02T04:13:01;33.58;;;15.70;;
56599;SDS011;51832;48.152;11.530;2023-03-02T04:18:01;28.73;;;14.48;;
56599;SDS011;51832;48.152;11.530;2023-03-02T04:23:02;22.42;;;12.43;;
56599;SDS011;51832;48.152;11.530;2023-03-02T04:28:02;29.08;;;14.75;;
56599;SDS011;51832;48.152;11.530;2023-03-02T04:33:03;29.10;;;15.18;;
56599;SDS011;51832;48.152;11.530;2023-03-02T04:38:03;28.02;;;15.02;;
56599;SDS011;51832;48.152;11.530;2023-03-02T04:43:03;29.63;;;15.52;;
56599;SDS011;51832;48.152;11.530;2023-03-02T04:48:04;31.92;;;15.43;;
56599;SDS011;51832;48.152;11.530;2023-03-02T04:53:06;33.95;;;15.65;;
56599;SDS011;51832;48.152;11.530;2023-03-02T04:58:06;29.27;;;15.63;;
56599;SDS011;51832;48.152;11.530;2023-03-02T05:03:07;28.48;;;14.65;;
56599;SDS011;51832;48.152;11.530;2023-03-02T05:08:08;31.15;;;15.23;;
56599;SDS011;51832;48.152;11.530;2023-03-02T05:13:08;30.67;;;15.98;;
56599;SDS011;51832;48.152;11.530;2023-03-02T05:18:08;30.63;;;15.07;;
56599;SDS011;51832;48.152;11.530;2023-03-02T05:23:12;29.60;;;14.63;;
56599;SDS011;51832;48.152;11.530;2023-03-02T05:28:23;31.42;;;15.00;;
56599;SDS011;51832;48.152;11.530;2023-03-02T05:33:25;31.73;;;16.13;;
56599;SDS011;51832;48.152;11.530;2023-03-02T05:38:26;31.48;;;14.38;;
56599;SDS011;51832;48.152;11.530;2023-03-02T05:43:26;30.02;;;15.15;;
56599;SDS011;51832;48.152;11.530;2023-03-02T05:48:28;28.77;;;14.68;;
56599;SDS011;51832;48.152;11.530;2023-03-02T05:53:29;30.90;;;15.30;;
56599;SDS011;51832;48.152;11.530;2023-03-02T05:58:29;36.30;;;16.13;;
56599;SDS011;51832;48.152;11.530;2023-03-02T06:03:30;32.70;;;14.50;;
56599;SDS011;51832;48.152;11.530;2023-03-02T06:08:30;32.85;;;15.93;;
56599;SDS011;51832;48.152;11.530;2023-03-02T06:13:30;33.35;;;16.25;;
56599;SDS011;51832;48.152;11.530;2023-03-02T06:18:31;30.52;;;15.90;;
56599;SDS011;51832;48.152;11.530;2023-03-02T06:23:31;29.48;;;15.77;;
56599;SDS011;51832;48.152;11.530;2023-03-02T06:28:32;33.28;;;15.65;;
56599;SDS011;51832;48.152;11.530;2023-03-02T06:33:32;30.80;;;15.98;;
56599;SDS011;51832;48.152;11.530;2023-03-02T06:38:33;33.97;;;16.38;;
56599;SDS011;51832;48.152;11.530;2023-03-02T06:43:33;30.13;;;14.93;;
56599;SDS011;51832;48.152;11.530;2023-03-02T06:48:34;32.25;;;15.77;;
56599;SDS011;51832;48.152;11.530;2023-03-02T06:53:34;30.17;;;13.75;;
56599;SDS011;51832;48.152;11.530;2023-03-02T06:58:35;28.52;;;13.88;;
56599;SDS011;51832;48.152;11.530;2023-03-02T07:03:36;29.70;;;15.00;;
56599;SDS011;51832;48.152;11.530;2023-03-02T07:08:36;30.20;;;14.15;;
56599;SDS011;51832;48.152;11.530;2023-03-02T07:13:37;29.42;;;14.25;;
56599;SDS011;51832;48.152;11.530;2023-03-02T07:18:38;30.45;;;15.02;;
56599;SDS011;51832;48.152;11.530;2023-03-02T07:23:39;27.35;;;14.15;;
56599;SDS011;51832;48.152;11.530;2023-03-02T07:28:39;27.58;;;14.35;;
56599;SDS011;51832;48.152;11.530;2023-03-02T07:33:41;31.80;;;14.50;;
56599;SDS011;51832;48.152;11.530;2023-03-02T07:38:41;33.35;;;15.02;;
56599;SDS011;51832;48.152;11.530;2023-03-02T07:43:42;31.65;;;14.55;;
56599;SDS011;51832;48.152;11.530;2023-03-02T07:48:42;29.20;;;15.25;;
56599;SDS011;51832;48.152;11.530;2023-03-02T07:53:43;30.90;;;15.07;;
56599;SDS011;51832;48.152;11.530;2023-03-02T07:58:43;28.30;;;13.60;;
56599;SDS011;51832;48.152;11.530;2023-03-02T08:03:44;29.55;;;14.02;;
56599;SDS011;51832;48.152;11.530;2023-03-02T08:08:44;28.20;;;14.10;;
56599;SDS011;51832;48.152;11.530;2023-03-02T08:13:45;27.27;;;13.60;;
56599;SDS011;51832;48.152;11.530;2023-03-02T08:18:45;28.50;;;14.45;;
56599;SDS011;51832;48.152;11.530;2023-03-02T08:23:46;26.45;;;13.23;;
56599;SDS011;51832;48.152;11.530;2023-03-02T08:28:47;25.48;;;13.55;;
56599;SDS011;51832;48.152;11.530;2023-03-02T08:33:48;25.80;;;13.82;;
56599;SDS011;51832;48.152;11.530;2023-03-02T08:38:48;24.98;;;13.88;;
56599;SDS011;51832;48.152;11.530;2023-03-02T08:43:49;27.70;;;14.40;;
56599;SDS011;51832;48.152;11.530;2023-03-02T08:48:53;30.00;;;14.52;;
56599;SDS011;51832;48.152;11.530;2023-03-02T08:53:53;26.80;;;14.52;;
56599;SDS011;51832;48.152;11.530;2023-03-02T08:58:57;27.77;;;13.80;;
56599;SDS011;51832;48.152;11.530;2023-03-02T09:03:58;30.65;;;14.82;;
56599;SDS011;51832;48.152;11.530;2023-03-02T09:09:00;28.83;;;14.23;;
56599;SDS011;51832;48.152;11.530;2023-03-02T09:14:00;25.35;;;14.05;;
56599;SDS011;51832;48.152;11.530;2023-03-02T09:19:00;29.05;;;13.93;;
56599;SDS011;51832;48.152;11.530;2023-03-02T09:24:01;26.67;;;13.65;;
56599;SDS011;51832;48.152;11.530;2023-03-02T09:29:02;27.07;;;13.90;;
56599;SDS011;51832;48.152;11.530;2023-03-02T09:34:03;28.10;;;13.95;;
56599;SDS011;51832;48.152;11.530;2023-03-02T09:39:04;29.65;;;14.43;;
56599;SDS011;51832;48.152;11.530;2023-03-02T09:54:55;27.48;;;13.73;;
56599;SDS011;51832;48.152;11.530;2023-03-02T10:00:06;24.60;;;12.88;;
56599;SDS011;51832;48.152;11.530;2023-03-02T10:05:15;27.05;;;14.27;;
56599;SDS011;51832;48.152;11.530;2023-03-02T10:15:55;29.90;;;15.02;;
56599;SDS011;51832;48.152;11.530;2023-03-02T10:21:31;25.98;;;12.80;;
56599;SDS011;51832;48.152;11.530;2023-03-02T10:31:30;23.02;;;13.18;;
56599;SDS011;51832;48.152;11.530;2023-03-02T10:36:40;26.80;;;13.68;;
56599;SDS011;51832;48.152;11.530;2023-03-02T10:41:50;24.65;;;12.73;;
56599;SDS011;51832;48.152;11.530;2023-03-02T10:46:57;24.88;;;12.98;;
56599;SDS011;51832;48.152;11.530;2023-03-02T10:52:02;26.50;;;13.80;;
56599;SDS011;51832;48.152;11.530;2023-03-02T10:57:21;23.08;;;13.25;;
56599;SDS011;51832;48.152;11.530;2023-03-02T11:02:31;23.85;;;13.07;;
56599;SDS011;51832;48.152;11.530;2023-03-02T11:07:35;22.55;;;12.52;;
56599;SDS011;51832;48.152;11.530;2023-03-02T11:12:35;22.63;;;12.85;;
56599;SDS011;51832;48.152;11.530;2023-03-02T11:17:36;21.75;;;12.27;;
56599;SDS011;51832;48.152;11.530;2023-03-02T11:23:12;29.40;;;12.80;;
56599;SDS011;51832;48.152;11.530;2023-03-02T11:28:19;24.77;;;12.23;;
56599;SDS011;51832;48.152;11.530;2023-03-02T11:38:45;24.83;;;11.45;;
56599;SDS011;51832;48.152;11.530;2023-03-02T11:43:55;19.17;;;10.68;;
56599;SDS011;51832;48.152;11.530;2023-03-02T11:49:03;22.40;;;11.70;;
56599;SDS011;51832;48.152;11.530;2023-03-02T11:54:20;20.40;;;11.73;;
56599;SDS011;51832;48.152;11.530;2023-03-02T11:59:22;15.63;;;10.85;;
56599;SDS011;51832;48.152;11.530;2023-03-02T12:04:33;20.20;;;12.10;;
56599;SDS011;51832;48.152;11.530;2023-03-02T12:09:36;19.67;;;11.40;;
56599;SDS011;51832;48.152;11.530;2023-03-02T12:14:38;18.88;;;11.02;;
56599;SDS011;51832;48.152;11.530;2023-03-02T12:24:42;21.08;;;11.05;;
56599;SDS011;51832;48.152;11.530;2023-03-02T12:29:47;20.40;;;10.90;;
56599;SDS011;51832;48.152;11.530;2023-03-02T12:34:52;20.77;;;10.10;;
56599;SDS011;51832;48.152;11.530;2023-03-02T12:45:30;15.35;;;9.63;;
56599;SDS011;51832;48.152;11.530;2023-03-02T12:50:47;16.00;;;9.25;;
56599;SDS011;51832;48.152;11.530;2023-03-02T12:55:50;15.27;;;9.65;;
56599;SDS011;51832;48.152;11.530;2023-03-02T13:00:51;14.60;;;8.90;;
56599;SDS011;51832;48.152;11.530;2023-03-02T13:06:03;15.65;;;9.70;;
56599;SDS011;51832;48.152;11.530;2023-03-02T13:11:12;14.93;;;8.73;;
56599;SDS011;51832;48.152;11.530;2023-03-02T13:16:24;16.90;;;9.07;;
56599;SDS011;51832;48.152;11.530;2023-03-02T13:21:30;12.35;;;8.30;;
56599;SDS011;51832;48.152;11.530;2023-03-02T13:26:34;18.70;;;9.10;;
56599;SDS011;51832;48.152;11.530;2023-03-02T13:31:36;14.55;;;10.02;;
56599;SDS011;51832;48.152;11.530;2023-03-02T13:36:36;15.50;;;8.75;;
56599;SDS011;51832;48.152;11.530;2023-03-02T13:41:38;16.33;;;8.40;;
56599;SDS011;51832;48.152;11.530;2023-03-02T13:46:39;13.55;;;8.27;;
56599;SDS011;51832;48.152;11.530;2023-03-02T13:51:41;13.77;;;8.45;;
56599;SDS011;51832;48.152;11.530;2023-03-02T13:56:44;13.88;;;7.65;;
56599;SDS011;51832;48.152;11.530;2023-03-02T14:01:44;12.15;;;7.55;;
56599;SDS011;51832;48.152;11.530;2023-03-02T14:06:45;13.48;;;7.57;;
56599;SDS011;51832;48.152;11.530;2023-03-02T14:11:47;13.90;;;8.10;;
56599;SDS011;51832;48.152;11.530;2023-03-02T14:16:50;14.55;;;8.73;;
56599;SDS011;51832;48.152;11.530;2023-03-02T14:21:51;13.80;;;7.88;;
56599;SDS011;51832;48.152;11.530;2023-03-02T14:26:51;12.80;;;7.88;;
56599;SDS011;51832;48.152;11.530;2023-03-02T14:31:52;14.75;;;8.27;;
56599;SDS011;51832;48.152;11.530;2023-03-02T14:36:55;26.33;;;14.27;;
56599;SDS011;51832;48.152;11.530;2023-03-02T14:41:57;26.42;;;13.55;;
56599;SDS011;51832;48.152;11.530;2023-03-02T14:46:57;28.90;;;15.57;;
56599;SDS011;51832;48.152;11.530;2023-03-02T14:51:59;27.92;;;15.70;;
56599;SDS011;51832;48.152;11.530;2023-03-02T14:57:03;30.20;;;15.20;;
56599;SDS011;51832;48.152;11.530;2023-03-02T15:02:05;23.38;;;14.30;;
56599;SDS011;51832;48.152;11.530;2023-03-02T15:07:09;24.85;;;14.10;;
56599;SDS011;51832;48.152;11.530;2023-03-02T15:12:11;21.63;;;13.25;;
56599;SDS011;51832;48.152;11.530;2023-03-02T15:17:11;28.13;;;15.88;;
56599;SDS011;51832;48.152;11.530;2023-03-02T15:22:12;27.60;;;15.70;;
56599;SDS011;51832;48.152;11.530;2023-03-02T15:27:13;25.25;;;14.60;;
56599;SDS011;51832;48.152;11.530;2023-03-02T15:32:14;25.42;;;14.85;;
56599;SDS011;51832;48.152;11.530;2023-03-02T15:37:14;26.05;;;15.45;;
56599;SDS011;51832;48.152;11.530;2023-03-02T15:42:15;26.40;;;15.68;;
56599;SDS011;51832;48.152;11.530;2023-03-02T15:47:15;28.23;;;16.03;;
56599;SDS011;51832;48.152;11.530;2023-03-02T15:52:16;23.60;;;14.38;;
56599;SDS011;51832;48.152;11.530;2023-03-02T15:57:18;25.97;;;16.03;;
56599;SDS011;51832;48.152;11.530;2023-03-02T16:02:19;27.10;;;16.10;;
56599;SDS011;51832;48.152;11.530;2023-03-02T16:07:19;29.05;;;15.57;;
56599;SDS011;51832;48.152;11.530;2023-03-02T16:12:20;32.38;;;16.63;;
56599;SDS011;51832;48.152;11.530;2023-03-02T16:17:22;28.77;;;15.73;;
56599;SDS011;51832;48.152;11.530;2023-03-02T16:22:23;31.25;;;15.73;;
56599;SDS011;51832;48.152;11.530;2023-03-02T16:27:23;32.33;;;17.30;;
56599;SDS011;51832;48.152;11.530;2023-03-02T16:32:24;28.30;;;14.63;;
56599;SDS011;51832;48.152;11.530;2023-03-02T16:37:24;34.07;;;16.87;;
56599;SDS011;51832;48.152;11.530;2023-03-02T16:42:25;38.77;;;16.20;;
56599;SDS011;51832;48.152;11.530;2023-03-02T16:47:27;42.05;;;17.23;;
56599;SDS011;51832;48.152;11.530;2023-03-02T16:52:27;36.40;;;16.15;;
56599;SDS011;51832;48.152;11.530;2023-03-02T16:57:28;36.88;;;15.70;;
56599;SDS011;51832;48.152;11.530;2023-03-02T17:02:28;32.57;;;15.27;;
56599;SDS011;51832;48.152;11.530;2023-03-02T17:07:29;37.97;;;16.40;;
56599;SDS011;51832;48.152;11.530;2023-03-02T17:12:29;39.58;;;16.05;;
56599;SDS011;51832;48.152;11.530;2023-03-02T17:17:29;37.55;;;16.55;;
56599;SDS011;51832;48.152;11.530;2023-03-02T17:22:30;38.35;;;15.63;;
56599;SDS011;51832;48.152;11.530;2023-03-02T17:27:30;39.83;;;16.02;;
56599;SDS011;51832;48.152;11.530;2023-03-02T17:32:31;42.88;;;16.35;;
56599;SDS011;51832;48.152;11.530;2023-03-02T17:37:32;43.10;;;17.67;;
56599;SDS011;51832;48.152;11.530;2023-03-02T17:42:32;37.88;;;16.92;;
56599;SDS011;51832;48.152;11.530;2023-03-02T17:47:33;38.08;;;16.92;;
56599;SDS011;51832;48.152;11.530;2023-03-02T17:52:33;46.95;;;17.70;;
56599;SDS011;51832;48.152;11.530;2023-03-02T17:57:34;41.53;;;17.77;;
56599;SDS011;51832;48.152;11.530;2023-03-02T18:02:35;46.10;;;18.17;;
56599;SDS011;51832;48.152;11.530;2023-03-02T18:07:35;39.47;;;16.35;;
56599;SDS011;51832;48.152;11.530;2023-03-02T18:12:36;44.25;;;17.13;;
56599;SDS011;51832;48.152;11.530;2023-03-02T18:17:36;41.97;;;17.02;;
56599;SDS011;51832;48.152;11.530;2023-03-02T18:22:37;48.10;;;17.70;;
56599;SDS011;51832;48.152;11.530;2023-03-02T18:27:37;44.05;;;17.55;;
56599;SDS011;51832;48.152;11.530;2023-03-02T18:32:38;46.58;;;17.88;;
56599;SDS011;51832;48.152;11.530;2023-03-02T18:37:38;41.92;;;16.90;;
56599;SDS011;51832;48.152;11.530;2023-03-02T18:42:38;45.35;;;17.27;;
56599;SDS011;51832;48.152;11.530;2023-03-02T18:47:39;41.50;;;17.30;;
56599;SDS011;51832;48.152;11.530;2023-03-02T18:52:39;41.63;;;16.95;;
56599;SDS011;51832;48.152;11.530;2023-03-02T18:57:40;47.75;;;17.88;;
56599;SDS011;51832;48.152;11.530;2023-03-02T19:02:40;45.92;;;15.80;;
56599;SDS011;51832;48.152;11.530;2023-03-02T19:07:41;45.70;;;17.55;;
56599;SDS011;51832;48.152;11.530;2023-03-02T19:12:41;47.05;;;16.65;;
56599;SDS011;51832;48.152;11.530;2023-03-02T19:17:42;44.53;;;17.38;;
56599;SDS011;51832;48.152;11.530;2023-03-02T19:22:43;51.05;;;17.58;;
56599;SDS011;51832;48.152;11.530;2023-03-02T19:27:43;48.00;;;19.27;;
56599;SDS011;51832;48.152;11.530;2023-03-02T19:32:44;44.78;;;18.55;;
56599;SDS011;51832;48.152;11.530;2023-03-02T19:37:44;47.83;;;17.45;;
56599;SDS011;51832;48.152;11.530;2023-03-02T19:42:45;47.05;;;18.00;;
56599;SDS011;51832;48.152;11.530;2023-03-02T19:47:46;52.97;;;19.05;;
56599;SDS011;51832;48.152;11.530;2023-03-02T19:52:47;47.10;;;18.55;;
56599;SDS011;51832;48.152;11.530;2023-03-02T19:57:48;46.08;;;17.25;;
56599;SDS011;51832;48.152;11.530;2023-03-02T20:02:55;46.38;;;18.10;;
56599;SDS011;51832;48.152;11.530;2023-03-02T20:07:56;45.47;;;18.00;;
56599;SDS011;51832;48.152;11.530;2023-03-02T20:12:57;48.92;;;16.95;;
56599;SDS011;51832;48.152;11.530;2023-03-02T20:17:58;50.85;;;18.85;;
56599;SDS011;51832;48.152;11.530;2023-03-02T20:23:01;46.47;;;17.17;;
56599;SDS011;51832;48.152;11.530;2023-03-02T20:28:03;51.75;;;17.65;;
56599;SDS011;51832;48.152;11.530;2023-03-02T20:33:06;50.03;;;18.07;;
56599;SDS011;51832;48.152;11.530;2023-03-02T20:38:08;51.85;;;17.67;;
56599;SDS011;51832;48.152;11.530;2023-03-02T20:43:12;43.80;;;16.33;;
56599;SDS011;51832;48.152;11.530;2023-03-02T20:48:13;46.25;;;19.13;;
56599;SDS011;51832;48.152;11.530;2023-03-02T20:53:14;49.05;;;18.17;;
56599;SDS011;51832;48.152;11.530;2023-03-02T20:58:15;43.42;;;17.13;;
56599;SDS011;51832;48.152;11.530;2023-03-02T21:03:16;44.05;;;16.95;;
56599;SDS011;51832;48.152;11.530;2023-03-02T21:08:16;45.22;;;17.08;;
56599;SDS011;51832;48.152;11.530;2023-03-02T21:13:16;45.85;;;17.13;;
56599;SDS011;51832;48.152;11.530;2023-03-02T21:18:19;45.42;;;17.52;;
56599;SDS011;51832;48.152;11.530;2023-03-02T21:23:19;46.50;;;16.55;;
56599;SDS011;51832;48.152;11.530;2023-03-02T21:28:20;46.55;;;16.95;;
56599;SDS011;51832;48.152;11.530;2023-03-02T21:33:20;44.78;;;16.60;;
56599;SDS011;51832;48.152;11.530;2023-03-02T21:38:21;54.10;;;18.58;;
56599;SDS011;51832;48.152;11.530;2023-03-02T21:43:21;44.10;;;16.50;;
56599;SDS011;51832;48.152;11.530;2023-03-02T21:48:22;51.92;;;19.30;;
56599;SDS011;51832;48.152;11.530;2023-03-02T21:53:22;42.90;;;17.42;;
56599;SDS011;51832;48.152;11.530;2023-03-02T21:58:23;47.95;;;16.75;;
56599;SDS011;51832;48.152;11.530;2023-03-02T22:03:23;51.22;;;19.05;;
56599;SDS011;51832;48.152;11.530;2023-03-02T22:08:24;49.03;;;17.67;;
56599;SDS011;51832;48.152;11.530;2023-03-02T22:13:31;48.20;;;17.30;;
56599;SDS011;51832;48.152;11.530;2023-03-02T22:18:33;42.05;;;16.92;;
56599;SDS011;51832;48.152;11.530;2023-03-02T22:23:33;44.22;;;17.63;;
56599;SDS011;51832;48.152;11.530;2023-03-02T22:28:33;43.80;;;16.63;;
56599;SDS011;51832;48.152;11.530;2023-03-02T22:33:39;50.58;;;17.55;;
56599;SDS011;51832;48.152;11.530;2023-03-02T22:38:40;47.00;;;18.50;;
56599;SDS011;51832;48.152;11.530;2023-03-02T22:43:41;43.47;;;16.73;;
56599;SDS011;51832;48.152;11.530;2023-03-02T22:48:45;48.80;;;18.40;;
56599;SDS011;51832;48.152;11.530;2023-03-02T22:53:52;39.60;;;17.00;;
56599;SDS011;51832;48.152;11.530;2023-03-02T22:58:53;45.90;;;17.48;;
56599;SDS011;51832;48.152;11.530;2023-03-02T23:04:17;40.63;;;16.33;;
56599;SDS011;51832;48.152;11.530;2023-03-02T23:09:22;45.13;;;16.25;;
56599;SDS011;51832;48.152;11.530;2023-03-02T23:14:26;42.95;;;17.70;;
56599;SDS011;51832;48.152;11.530;2023-03-02T23:19:29;48.30;;;17.85;;
56599;SDS011;51832;48.152;11.530;2023-03-02T23:24:30;42.58;;;17.15;;
56599;SDS011;51832;48.152;11.530;2023-03-02T23:29:33;45.03;;;17.20;;
56599;SDS011;51832;48.152;11.530;2023-03-02T23:34:34;42.78;;;18.08;;
56599;SDS011;51832;48.152;11.530;2023-03-02T23:39:35;47.15;;;18.15;;
56599;SDS011;51832;48.152;11.530;2023-03-02T23:44:35;47.72;;;17.98;;
56599;SDS011;51832;48.152;11.530;2023-03-02T23:49:35;45.65;;;18.20;;
56599;SDS011;51832;48.152;11.530;2023-03-02T23:54:36;44.88;;;17.83;;
56599;SDS011;51832;48.152;11.530;2023-03-02T23:59:36;53.42;;;17.95;;
